Lexington, Indiana
Current Conditions -  °F | °C
As of 12:53 PM on Saturday 25 Oct 2014 (Local Time) from KLOU Reporting Station
Overcast Overcast  
Wind Chill: 66°   Ceiling: 2300
Heat Index: 66°   Visibility: 10mi
Dew Point: 56°   Wind: 9mph
Humidity: 70%   Direction: 260°W
Pressure: 30.01"   Gusts: NA
Location:  38.65°N, 85.63°W
Report Text: KLOU 251653Z 26008KT 10SM OVC023 19/13 A3001 RMK AO2 SLP160 T01890133
Loading
Personal Weather Stations






























Interactive Weather Map
Tropical Storm Tracking
New forecast layout! Learn more

10-Day Weather Forecast

Advertisements
Track Severe Weather on mobile